Time;durP1;ratioP1;P1;durP2;ratioP2;P2;SDS_P1;SDS_P2;PMS_P1;PMS_P2;Temp;Humidity;BMP_temperature;BMP_pressure;BME280_temperature;BME280_humidity;BME280_pressure;Samples;Min_cycle;Max_cycle;Signal;HPM_P1;HPM_P2
2023/12/21 00:00:16;;;;;;;55.77;2.00;;;;;;;;;;5037663;28;20455;-73
2023/12/21 00:02:43;;;;;;;55.87;2.90;;;;;;;;;;5032383;28;20590;-72
2023/12/21 00:05:10;;;;;;;55.60;2.30;;;;;;;;;;5042883;28;20458;-73
2023/12/21 00:07:38;;;;;;;55.97;3.00;;;;;;;;;;5034668;28;20948;-73
2023/12/21 00:10:06;;;;;;;55.50;2.40;;;;;;;;;;5037180;28;20452;-73
2023/12/21 00:12:33;;;;;;;55.80;2.10;;;;;;;;;;5031138;28;20470;-73
2023/12/21 00:15:00;;;;;;;55.70;2.30;;;;;;;;;;5045839;28;20454;-73
2023/12/21 00:17:27;;;;;;;55.60;2.70;;;;;;;;;;5033313;28;20470;-73
2023/12/21 00:19:54;;;;;;;55.90;2.47;;;;;;;;;;5030901;28;20458;-73
2023/12/21 00:22:22;;;;;;;55.53;2.23;;;;;;;;;;5031165;28;20482;-73
2023/12/21 00:24:50;;;;;;;55.63;2.80;;;;;;;;;;5031507;28;20465;-73
2023/12/21 00:27:17;;;;;;;55.80;2.70;;;;;;;;;;5031106;28;20973;-73
2023/12/21 00:29:44;;;;;;;55.77;2.63;;;;;;;;;;5031615;28;20455;-73
2023/12/21 00:32:11;;;;;;;55.77;2.63;;;;;;;;;;5031175;28;20483;-73
2023/12/21 00:34:39;;;;;;;55.67;2.63;;;;;;;;;;5031277;28;20450;-73
2023/12/21 00:37:06;;;;;;;55.30;2.20;;;;;;;;;;5032886;28;21025;-73
2023/12/21 00:39:33;;;;;;;55.90;2.50;;;;;;;;;;5046394;28;20453;-73
2023/12/21 00:42:01;;;;;;;55.57;2.30;;;;;;;;;;5036808;28;20511;-73
2023/12/21 00:44:28;;;;;;;55.73;2.30;;;;;;;;;;5031215;28;20494;-73
2023/12/21 00:46:55;;;;;;;55.60;2.20;;;;;;;;;;5031117;28;20455;-73
2023/12/21 00:49:22;;;;;;;55.83;2.57;;;;;;;;;;5031114;28;20455;-73
2023/12/21 00:51:50;;;;;;;56.00;2.87;;;;;;;;;;5031478;28;20471;-73
2023/12/21 00:54:17;;;;;;;55.60;2.40;;;;;;;;;;5031405;28;20796;-73
2023/12/21 00:56:44;;;;;;;55.50;2.50;;;;;;;;;;5043033;28;20455;-73
2023/12/21 00:59:11;;;;;;;55.90;2.77;;;;;;;;;;5051137;28;20446;-73
2023/12/21 01:01:38;;;;;;;55.57;2.50;;;;;;;;;;5050380;28;20486;-73
2023/12/21 01:04:05;;;;;;;58.27;2.80;;;;;;;;;;5050702;28;20494;-73
2023/12/21 01:06:36;;;;;;;55.60;2.10;;;;;;;;;;5047192;28;20494;-73
2023/12/21 01:09:03;;;;;;;55.77;2.33;;;;;;;;;;5047267;28;20462;-73
2023/12/21 01:11:30;;;;;;;55.77;2.20;;;;;;;;;;5032551;28;20462;-73
2023/12/21 01:13:57;;;;;;;55.70;2.70;;;;;;;;;;5039118;28;20451;-73
2023/12/21 01:16:26;;;;;;;55.70;2.47;;;;;;;;;;5030762;28;20841;-73
2023/12/21 01:18:53;;;;;;;55.67;2.37;;;;;;;;;;5035858;28;20458;-73
2023/12/21 01:21:20;;;;;;;55.87;2.50;;;;;;;;;;5037689;28;20454;-73
2023/12/21 01:23:47;;;;;;;55.57;2.57;;;;;;;;;;5044525;28;20479;-73
2023/12/21 01:26:14;;;;;;;55.70;2.30;;;;;;;;;;5031325;28;20474;-73
2023/12/21 01:28:41;;;;;;;55.87;2.63;;;;;;;;;;5037985;28;20460;-73
2023/12/21 01:31:08;;;;;;;55.87;2.57;;;;;;;;;;5034962;28;20458;-73
2023/12/21 01:33:37;;;;;;;56.00;2.63;;;;;;;;;;5043318;28;20979;-73
2023/12/21 01:36:07;;;;;;;55.57;2.10;;;;;;;;;;5034562;28;20455;-73
2023/12/21 01:38:34;;;;;;;55.87;2.40;;;;;;;;;;5034720;28;20455;-73
2023/12/21 01:41:01;;;;;;;55.77;2.53;;;;;;;;;;5034754;28;20824;-73
2023/12/21 01:43:28;;;;;;;55.67;2.20;;;;;;;;;;5044336;28;20499;-73
2023/12/21 01:45:56;;;;;;;55.67;2.33;;;;;;;;;;5042984;28;20988;-73
2023/12/21 01:48:23;;;;;;;55.47;2.10;;;;;;;;;;5042074;28;20464;-73
2023/12/21 01:50:52;;;;;;;55.87;2.73;;;;;;;;;;5041584;28;20462;-73
2023/12/21 01:53:20;;;;;;;55.77;2.40;;;;;;;;;;5053564;28;20467;-73
2023/12/21 01:55:47;;;;;;;56.00;2.33;;;;;;;;;;5034446;28;20447;-73
2023/12/21 01:58:14;;;;;;;55.60;2.30;;;;;;;;;;5034108;28;20454;-73
2023/12/21 02:00:41;;;;;;;55.57;2.30;;;;;;;;;;5045913;28;20447;-73
2023/12/21 02:03:08;;;;;;;55.60;2.40;;;;;;;;;;5033812;28;20505;-73
2023/12/21 02:05:36;;;;;;;55.53;2.20;;;;;;;;;;5041823;28;20461;-73
2023/12/21 02:08:04;;;;;;;55.70;2.20;;;;;;;;;;5033686;28;20456;-73
2023/12/21 02:10:31;;;;;;;55.60;2.50;;;;;;;;;;5033912;28;20952;-73
2023/12/21 02:12:58;;;;;;;55.77;2.10;;;;;;;;;;5033772;28;20479;-73
2023/12/21 02:15:26;;;;;;;55.77;2.60;;;;;;;;;;5033650;28;20456;-73
2023/12/21 02:17:54;;;;;;;55.57;2.20;;;;;;;;;;5033993;28;20546;-73
2023/12/21 02:20:22;;;;;;;55.67;2.63;;;;;;;;;;5034083;28;20458;-73
2023/12/21 02:22:49;;;;;;;55.60;2.20;;;;;;;;;;5045074;28;20476;-73
2023/12/21 02:25:18;;;;;;;55.90;2.20;;;;;;;;;;5053723;28;20461;-73
2023/12/21 02:27:45;;;;;;;55.40;2.10;;;;;;;;;;5053378;28;20456;-73
2023/12/21 02:30:12;;;;;;;55.57;2.23;;;;;;;;;;5053511;28;20546;-73
2023/12/21 02:32:39;;;;;;;55.70;2.47;;;;;;;;;;5053074;28;20481;-73
2023/12/21 02:35:07;;;;;;;55.90;2.17;;;;;;;;;;5053547;28;20538;-73
2023/12/21 02:37:34;;;;;;;55.70;2.27;;;;;;;;;;5053521;28;20788;-73
2023/12/21 02:40:01;;;;;;;55.60;2.30;;;;;;;;;;5053276;28;20452;-73
2023/12/21 02:42:29;;;;;;;55.50;2.40;;;;;;;;;;5051272;28;20481;-73
2023/12/21 02:44:56;;;;;;;55.47;2.10;;;;;;;;;;5033131;28;20492;-73
2023/12/21 02:47:24;;;;;;;55.63;2.47;;;;;;;;;;5046134;28;20451;-73
2023/12/21 02:49:51;;;;;;;55.27;2.40;;;;;;;;;;5033048;28;20451;-73
2023/12/21 02:52:18;;;;;;;55.60;2.17;;;;;;;;;;5033232;28;20463;-73
2023/12/21 02:54:45;;;;;;;55.70;2.40;;;;;;;;;;5032833;28;20452;-73
2023/12/21 02:57:12;;;;;;;55.80;2.50;;;;;;;;;;5033367;28;20448;-73
2023/12/21 02:59:43;;;;;;;55.67;2.60;;;;;;;;;;5039993;28;20449;-72
2023/12/21 03:02:10;;;;;;;55.57;2.30;;;;;;;;;;5032708;28;20554;-73
2023/12/21 03:04:37;;;;;;;55.57;2.00;;;;;;;;;;5033338;28;20490;-73
2023/12/21 03:07:04;;;;;;;55.27;2.20;;;;;;;;;;5033111;28;20462;-73
2023/12/21 03:09:31;;;;;;;55.40;2.00;;;;;;;;;;5032821;28;20451;-73
2023/12/21 03:11:59;;;;;;;55.30;2.13;;;;;;;;;;5032737;28;20586;-73
2023/12/21 03:17:31;;;;;;;55.37;2.27;;;;;;;;;;5032324;28;20402;-73
2023/12/21 03:20:00;;;;;;;56.00;2.50;;;;;;;;;;5032710;28;20507;-73
2023/12/21 03:22:27;;;;;;;55.90;2.03;;;;;;;;;;5031749;28;20991;-73
2023/12/21 03:24:54;;;;;;;55.43;2.00;;;;;;;;;;5032815;28;20862;-73
2023/12/21 03:27:21;;;;;;;55.67;2.50;;;;;;;;;;5032488;28;20459;-73
2023/12/21 03:29:48;;;;;;;55.60;2.40;;;;;;;;;;5032654;28;20451;-72
2023/12/21 03:32:15;;;;;;;55.60;2.50;;;;;;;;;;5032876;28;20468;-73
2023/12/21 03:34:44;;;;;;;56.90;2.77;;;;;;;;;;5032671;28;20451;-73
2023/12/21 03:37:11;;;;;;;55.73;2.63;;;;;;;;;;5039944;28;20451;-73
2023/12/21 03:39:38;;;;;;;55.50;2.20;;;;;;;;;;5042548;28;20448;-73
2023/12/21 03:42:05;;;;;;;55.70;2.13;;;;;;;;;;5031978;28;20474;-73
2023/12/21 03:44:32;;;;;;;55.63;2.40;;;;;;;;;;5031878;28;20514;-73
2023/12/21 03:47:00;;;;;;;55.57;2.10;;;;;;;;;;5042540;28;20969;-72
2023/12/21 03:49:28;;;;;;;56.17;2.40;;;;;;;;;;5048783;28;20459;-72
2023/12/21 03:51:57;;;;;;;55.53;2.03;;;;;;;;;;5031643;28;20851;-72
2023/12/21 03:54:24;;;;;;;55.43;2.20;;;;;;;;;;5034571;28;20447;-72
2023/12/21 03:56:51;;;;;;;55.77;2.13;;;;;;;;;;5031875;28;20456;-72
2023/12/21 03:59:18;;;;;;;55.63;2.23;;;;;;;;;;5031654;28;20452;-72
2023/12/21 04:01:45;;;;;;;55.77;2.53;;;;;;;;;;5031578;28;20498;-72
2023/12/21 04:04:12;;;;;;;55.70;2.30;;;;;;;;;;5031830;28;20498;-72
2023/12/21 04:06:40;;;;;;;55.50;2.30;;;;;;;;;;5048389;28;20453;-73
2023/12/21 04:09:08;;;;;;;55.80;2.70;;;;;;;;;;5031821;28;20452;-72
2023/12/21 04:11:35;;;;;;;55.60;2.70;;;;;;;;;;5031492;28;20468;-73
2023/12/21 04:14:03;;;;;;;55.80;2.50;;;;;;;;;;5031821;28;20457;-73
2023/12/21 04:16:30;;;;;;;55.70;2.60;;;;;;;;;;5032011;28;20811;-73
2023/12/21 04:18:57;;;;;;;55.80;2.53;;;;;;;;;;5031944;28;20456;-73
2023/12/21 04:21:24;;;;;;;55.60;2.47;;;;;;;;;;5031814;28;20878;-73
2023/12/21 04:23:51;;;;;;;55.60;2.10;;;;;;;;;;5031191;28;20498;-73
2023/12/21 04:26:20;;;;;;;55.57;2.40;;;;;;;;;;5046943;28;20534;-73
2023/12/21 04:28:48;;;;;;;55.53;2.20;;;;;;;;;;5032177;28;20559;-73
2023/12/21 04:31:18;;;;;;;55.90;2.47;;;;;;;;;;5031667;28;20452;-73
2023/12/21 04:33:46;;;;;;;55.60;2.67;;;;;;;;;;5031566;28;20777;-71
2023/12/21 04:36:14;;;;;;;55.80;2.50;;;;;;;;;;5031185;28;20460;-74
2023/12/21 04:38:41;;;;;;;55.47;2.13;;;;;;;;;;5031406;28;20452;-72
2023/12/21 04:41:08;;;;;;;55.47;2.07;;;;;;;;;;5031385;28;20447;-72
2023/12/21 04:43:36;;;;;;;55.67;2.30;;;;;;;;;;5030860;28;21016;-72
2023/12/21 04:46:03;;;;;;;55.60;2.30;;;;;;;;;;5031447;28;20533;-72
2023/12/21 04:48:30;;;;;;;55.57;2.20;;;;;;;;;;5043253;28;20463;-72
2023/12/21 04:50:58;;;;;;;55.77;2.63;;;;;;;;;;5038703;28;20456;-72
2023/12/21 04:53:25;;;;;;;55.57;2.20;;;;;;;;;;5030893;28;20482;-72
2023/12/21 04:55:52;;;;;;;55.80;2.30;;;;;;;;;;5031264;28;20454;-72
2023/12/21 04:58:19;;;;;;;55.67;2.20;;;;;;;;;;5048532;28;20942;-73
2023/12/21 05:00:50;;;;;;;55.70;2.20;;;;;;;;;;5040152;28;20454;-73
2023/12/21 05:03:18;;;;;;;55.67;2.20;;;;;;;;;;5030719;28;20472;-73
2023/12/21 05:05:45;;;;;;;55.57;2.30;;;;;;;;;;5032983;28;20494;-73
2023/12/21 05:08:13;;;;;;;55.60;2.20;;;;;;;;;;5040725;28;20447;-73
2023/12/21 05:10:40;;;;;;;55.60;2.20;;;;;;;;;;5036770;28;20459;-73
2023/12/21 05:13:07;;;;;;;55.70;2.40;;;;;;;;;;5034710;28;20847;-73
2023/12/21 05:15:34;;;;;;;55.77;2.67;;;;;;;;;;5034996;28;20889;-72
2023/12/21 05:18:02;;;;;;;55.77;2.30;;;;;;;;;;5034761;28;20455;-73
2023/12/21 05:20:29;;;;;;;55.67;2.20;;;;;;;;;;5034825;28;20460;-72
2023/12/21 05:22:57;;;;;;;55.50;1.83;;;;;;;;;;5046284;28;20474;-72
2023/12/21 05:25:24;;;;;;;55.50;2.47;;;;;;;;;;5054660;28;20486;-73
2023/12/21 05:27:51;;;;;;;55.87;2.50;;;;;;;;;;5054733;28;20850;-72
2023/12/21 05:30:19;;;;;;;55.60;2.27;;;;;;;;;;5054648;28;20461;-73
2023/12/21 05:32:46;;;;;;;55.67;2.13;;;;;;;;;;5054466;28;20478;-72
2023/12/21 05:35:14;;;;;;;55.57;2.10;;;;;;;;;;5054334;28;20817;-72
2023/12/21 05:37:41;;;;;;;55.80;2.10;;;;;;;;;;5054493;28;20837;-73
2023/12/21 05:40:09;;;;;;;55.60;2.20;;;;;;;;;;5049439;28;20548;-73
2023/12/21 05:42:36;;;;;;;55.67;2.17;;;;;;;;;;5034479;28;20533;-73
2023/12/21 05:45:03;;;;;;;55.07;2.10;;;;;;;;;;5034178;28;20554;-73
2023/12/21 05:47:31;;;;;;;55.50;2.33;;;;;;;;;;5034556;28;20466;-73
2023/12/21 05:49:59;;;;;;;55.57;2.37;;;;;;;;;;5046273;28;20451;-73
2023/12/21 05:52:27;;;;;;;55.70;2.40;;;;;;;;;;5053244;28;20478;-72
2023/12/21 05:54:54;;;;;;;55.60;1.90;;;;;;;;;;5036946;28;20436;-73
2023/12/21 05:57:22;;;;;;;55.80;2.40;;;;;;;;;;5047951;28;20448;-73
2023/12/21 05:59:49;;;;;;;55.70;2.00;;;;;;;;;;5049949;28;20451;-73
2023/12/21 06:02:16;;;;;;;55.57;2.53;;;;;;;;;;5034324;28;20487;-73
2023/12/21 06:04:43;;;;;;;55.67;2.47;;;;;;;;;;5034715;28;20496;-73
2023/12/21 06:07:10;;;;;;;55.63;2.27;;;;;;;;;;5034466;28;20459;-73
2023/12/21 06:09:38;;;;;;;55.63;2.07;;;;;;;;;;5044451;28;20455;-73
2023/12/21 06:12:06;;;;;;;55.07;2.00;;;;;;;;;;5033442;28;20476;-73
2023/12/21 06:14:33;;;;;;;55.70;2.10;;;;;;;;;;5033955;28;20450;-73
2023/12/21 06:17:00;;;;;;;55.57;2.23;;;;;;;;;;5033019;28;20450;-73
2023/12/21 06:19:27;;;;;;;55.80;2.40;;;;;;;;;;5033772;28;20504;-73
2023/12/21 06:21:54;;;;;;;55.60;2.40;;;;;;;;;;5033260;28;20760;-73
2023/12/21 06:24:21;;;;;;;55.50;2.10;;;;;;;;;;5033681;28;20460;-73
2023/12/21 06:26:50;;;;;;;55.37;2.10;;;;;;;;;;5034228;28;20451;-73
2023/12/21 06:29:17;;;;;;;55.87;2.33;;;;;;;;;;5033548;28;20529;-73
2023/12/21 06:31:44;;;;;;;55.80;2.00;;;;;;;;;;5034864;28;20468;-73
2023/12/21 06:34:11;;;;;;;55.67;2.30;;;;;;;;;;5043608;28;20459;-73
2023/12/21 06:36:39;;;;;;;55.80;2.73;;;;;;;;;;5036238;28;20479;-73
2023/12/21 06:39:06;;;;;;;55.60;2.20;;;;;;;;;;5035743;28;20491;-72
2023/12/21 06:41:33;;;;;;;55.33;2.30;;;;;;;;;;5039259;28;20467;-73
2023/12/21 06:44:02;;;;;;;55.57;2.17;;;;;;;;;;5053914;28;20451;-73
2023/12/21 06:46:29;;;;;;;55.53;2.30;;;;;;;;;;5059611;28;20481;-73
2023/12/21 06:48:56;;;;;;;55.57;2.10;;;;;;;;;;5058559;28;20450;-73
2023/12/21 06:51:23;;;;;;;55.60;2.53;;;;;;;;;;5050199;28;20497;-73
2023/12/21 06:53:50;;;;;;;55.63;2.23;;;;;;;;;;5034764;28;20932;-73
2023/12/21 06:56:18;;;;;;;55.77;2.50;;;;;;;;;;5038285;28;20448;-73
2023/12/21 06:58:45;;;;;;;55.77;2.40;;;;;;;;;;5037529;28;20457;-72
2023/12/21 07:01:13;;;;;;;55.37;2.20;;;;;;;;;;5037197;28;20467;-73
2023/12/21 07:03:40;;;;;;;55.57;2.13;;;;;;;;;;5039505;28;20447;-73
2023/12/21 07:06:11;;;;;;;55.57;2.10;;;;;;;;;;5032886;28;20498;-73
2023/12/21 07:08:38;;;;;;;55.87;2.37;;;;;;;;;;5032723;28;20953;-73
2023/12/21 07:11:05;;;;;;;55.70;2.03;;;;;;;;;;5033346;28;20897;-73
2023/12/21 07:13:32;;;;;;;55.17;1.93;;;;;;;;;;5032621;28;20476;-73
2023/12/21 07:16:02;;;;;;;55.60;2.10;;;;;;;;;;5032712;28;20444;-73
2023/12/21 07:18:30;;;;;;;55.70;2.20;;;;;;;;;;5032735;28;20449;-73
2023/12/21 07:20:58;;;;;;;55.77;1.83;;;;;;;;;;5031877;28;20459;-73
2023/12/21 07:23:25;;;;;;;55.77;2.47;;;;;;;;;;5032079;28;20472;-73
2023/12/21 07:25:52;;;;;;;55.57;2.30;;;;;;;;;;5032162;28;20939;-73
2023/12/21 07:28:19;;;;;;;55.53;2.23;;;;;;;;;;5032379;28;20562;-73
2023/12/21 07:30:46;;;;;;;55.50;1.80;;;;;;;;;;5032320;28;20458;-73
2023/12/21 07:33:13;;;;;;;55.77;2.00;;;;;;;;;;5031985;28;20479;-73
2023/12/21 07:35:42;;;;;;;55.73;2.30;;;;;;;;;;5032052;28;20929;-73
2023/12/21 07:38:09;;;;;;;55.67;2.57;;;;;;;;;;5032449;28;20491;-73
2023/12/21 07:40:36;;;;;;;55.47;1.90;;;;;;;;;;5031928;28;20456;-73
2023/12/21 07:43:03;;;;;;;55.63;2.10;;;;;;;;;;5031821;28;20498;-73
2023/12/21 07:45:30;;;;;;;55.60;2.20;;;;;;;;;;5039244;28;21044;-73
2023/12/21 07:47:57;;;;;;;55.67;2.33;;;;;;;;;;5041146;28;20452;-73
2023/12/21 07:50:24;;;;;;;55.60;2.30;;;;;;;;;;5032057;28;20455;-73
2023/12/21 07:52:56;;;;;;;55.73;2.20;;;;;;;;;;5039547;28;20556;-73
2023/12/21 07:55:23;;;;;;;55.57;2.00;;;;;;;;;;5032363;28;20514;-73
2023/12/21 07:57:50;;;;;;;55.37;2.00;;;;;;;;;;5037436;28;20461;-73
2023/12/21 08:00:17;;;;;;;55.80;2.40;;;;;;;;;;5039940;28;20845;-73
2023/12/21 08:02:45;;;;;;;55.60;2.13;;;;;;;;;;5045788;28;21035;-73
2023/12/21 08:05:12;;;;;;;55.53;2.00;;;;;;;;;;5039165;28;20546;-73
2023/12/21 08:07:40;;;;;;;55.77;2.20;;;;;;;;;;5031970;28;20959;-73
2023/12/21 08:10:09;;;;;;;55.23;2.07;;;;;;;;;;5032378;28;20951;-73
2023/12/21 08:12:36;;;;;;;55.50;1.90;;;;;;;;;;5031889;28;20473;-73
2023/12/21 08:15:03;;;;;;;55.90;2.70;;;;;;;;;;5031628;28;20943;-73
2023/12/21 08:17:32;;;;;;;55.70;2.03;;;;;;;;;;5031624;28;20454;-73
2023/12/21 08:19:59;;;;;;;55.93;2.20;;;;;;;;;;5031657;28;20543;-73
2023/12/21 08:22:26;;;;;;;55.80;2.07;;;;;;;;;;5031287;28;20474;-73
2023/12/21 08:24:54;;;;;;;55.80;2.33;;;;;;;;;;5031451;28;20891;-73
2023/12/21 08:27:22;;;;;;;55.70;2.40;;;;;;;;;;5031873;28;20456;-73
2023/12/21 08:29:49;;;;;;;55.57;2.40;;;;;;;;;;5031709;28;20452;-73
2023/12/21 08:32:16;;;;;;;55.47;2.30;;;;;;;;;;5030947;28;20469;-73
2023/12/21 08:34:43;;;;;;;55.70;2.10;;;;;;;;;;5031204;28;20456;-73
2023/12/21 08:37:12;;;;;;;55.80;2.50;;;;;;;;;;5031626;28;20451;-73
2023/12/21 08:39:39;;;;;;;55.67;2.30;;;;;;;;;;5032986;28;20449;-73
2023/12/21 08:42:08;;;;;;;55.67;2.53;;;;;;;;;;5037778;28;20476;-73
2023/12/21 08:44:37;;;;;;;55.70;2.10;;;;;;;;;;5037965;28;20551;-73
2023/12/21 08:47:04;;;;;;;55.80;2.10;;;;;;;;;;5037773;28;20715;-74
2023/12/21 08:49:31;;;;;;;55.57;2.30;;;;;;;;;;5038188;28;20448;-75
2023/12/21 08:51:59;;;;;;;54.97;2.10;;;;;;;;;;5038643;28;20474;-74
2023/12/21 08:54:26;;;;;;;55.47;2.00;;;;;;;;;;5038556;28;20454;-74
2023/12/21 08:56:53;;;;;;;55.17;2.10;;;;;;;;;;5038968;28;20447;-74
2023/12/21 08:59:21;;;;;;;55.60;2.00;;;;;;;;;;5038102;28;20455;-75
2023/12/21 09:01:51;;;;;;;55.70;2.10;;;;;;;;;;5038231;28;20567;-75
2023/12/21 09:04:18;;;;;;;55.70;2.00;;;;;;;;;;5038331;28;20494;-74
2023/12/21 09:06:45;;;;;;;55.47;2.20;;;;;;;;;;5037777;28;20484;-74
2023/12/21 09:09:13;;;;;;;55.70;2.10;;;;;;;;;;5037818;28;20447;-74
2023/12/21 09:11:40;;;;;;;55.80;2.10;;;;;;;;;;5037410;28;20475;-74
2023/12/21 09:14:07;;;;;;;55.87;2.27;;;;;;;;;;5037712;28;20843;-74
2023/12/21 09:16:34;;;;;;;55.27;2.00;;;;;;;;;;5038019;28;20450;-74
2023/12/21 09:19:03;;;;;;;54.93;2.00;;;;;;;;;;5046330;28;20446;-72
2023/12/21 09:21:30;;;;;;;55.80;2.23;;;;;;;;;;5038494;28;20508;-75
2023/12/21 09:23:59;;;;;;;55.60;2.03;;;;;;;;;;5039133;28;20452;-75
2023/12/21 09:26:27;;;;;;;55.57;2.57;;;;;;;;;;5038876;28;20585;-75
2023/12/21 09:28:54;;;;;;;55.80;2.10;;;;;;;;;;5038590;28;20455;-74
2023/12/21 09:31:21;;;;;;;55.37;2.07;;;;;;;;;;5038689;28;20451;-74
2023/12/21 09:33:48;;;;;;;55.57;2.27;;;;;;;;;;5038734;28;20462;-74
2023/12/21 09:36:19;;;;;;;55.57;2.20;;;;;;;;;;5039135;28;20453;-74
2023/12/21 09:38:46;;;;;;;55.57;1.90;;;;;;;;;;5038837;28;20452;-74
2023/12/21 09:41:13;;;;;;;55.37;1.87;;;;;;;;;;5039102;28;20864;-74
2023/12/21 09:43:42;;;;;;;55.60;2.10;;;;;;;;;;5038261;28;20464;-74
2023/12/21 09:46:10;;;;;;;55.70;2.33;;;;;;;;;;5049923;28;20483;-74
2023/12/21 09:48:40;;;;;;;55.30;1.80;;;;;;;;;;5057482;28;21038;-75
2023/12/21 09:51:07;;;;;;;55.60;1.90;;;;;;;;;;5056422;28;21009;-75
2023/12/21 09:53:36;;;;;;;55.30;1.93;;;;;;;;;;5054025;28;20479;-75
2023/12/21 09:56:05;;;;;;;55.50;2.13;;;;;;;;;;5055568;28;20447;-75
2023/12/21 09:58:33;;;;;;;55.07;1.90;;;;;;;;;;5055649;28;20460;-75
2023/12/21 10:01:00;;;;;;;55.60;2.00;;;;;;;;;;5054749;28;20749;-74
2023/12/21 10:03:27;;;;;;;55.60;2.00;;;;;;;;;;5054323;28;20528;-74
2023/12/21 10:05:54;;;;;;;55.90;2.57;;;;;;;;;;5055308;28;20485;-74
2023/12/21 10:08:21;;;;;;;55.50;2.03;;;;;;;;;;5055376;28;20478;-75
2023/12/21 10:10:49;;;;;;;55.47;2.20;;;;;;;;;;5055657;28;20963;-75
2023/12/21 10:13:17;;;;;;;55.43;1.90;;;;;;;;;;5055252;28;20474;-75
2023/12/21 10:15:46;;;;;;;55.50;2.10;;;;;;;;;;5056467;28;20841;-75
2023/12/21 10:18:13;;;;;;;55.60;1.97;;;;;;;;;;5055556;28;20499;-75
2023/12/21 10:20:40;;;;;;;55.40;1.97;;;;;;;;;;5055226;28;20927;-74
2023/12/21 10:23:09;;;;;;;55.57;2.03;;;;;;;;;;5053431;28;20469;-74
2023/12/21 10:25:38;;;;;;;55.60;2.00;;;;;;;;;;5054377;28;20554;-74
2023/12/21 10:28:08;;;;;;;55.63;2.10;;;;;;;;;;5054419;28;20462;-74
2023/12/21 10:30:38;;;;;;;55.53;2.10;;;;;;;;;;5055116;28;20451;-74
2023/12/21 10:33:08;;;;;;;55.77;2.67;;;;;;;;;;5054264;28;20467;-74
2023/12/21 10:35:36;;;;;;;55.53;2.00;;;;;;;;;;5047288;28;20451;-74
2023/12/21 10:38:04;;;;;;;55.50;2.00;;;;;;;;;;5054613;28;20451;-74
2023/12/21 10:40:31;;;;;;;55.40;2.30;;;;;;;;;;5054861;28;20895;-75
2023/12/21 10:42:58;;;;;;;55.50;2.13;;;;;;;;;;5054345;28;20797;-75
2023/12/21 10:45:26;;;;;;;55.27;2.20;;;;;;;;;;5055332;28;20466;-74
2023/12/21 10:47:55;;;;;;;55.70;2.10;;;;;;;;;;5054948;28;20456;-74
2023/12/21 10:50:22;;;;;;;55.53;2.10;;;;;;;;;;5055117;28;20458;-74
2023/12/21 10:52:49;;;;;;;55.80;2.13;;;;;;;;;;5054564;28;20476;-75
2023/12/21 10:55:17;;;;;;;55.57;2.20;;;;;;;;;;5055372;28;20962;-75
2023/12/21 10:57:44;;;;;;;55.57;2.30;;;;;;;;;;5054331;28;20453;-74
2023/12/21 11:00:15;;;;;;;55.27;2.20;;;;;;;;;;5053707;28;20538;-74
2023/12/21 11:02:44;;;;;;;55.50;2.10;;;;;;;;;;5054183;28;20536;-75
2023/12/21 11:05:19;;;;;;;55.43;2.07;;;;;;;;;;5054128;28;21005;-75
2023/12/21 11:07:46;;;;;;;55.33;2.00;;;;;;;;;;5054028;28;20855;-74
2023/12/21 11:10:13;;;;;;;55.47;1.90;;;;;;;;;;5054292;28;20839;-75
2023/12/21 11:12:40;;;;;;;55.50;2.10;;;;;;;;;;5054066;28;20472;-74
2023/12/21 11:15:08;;;;;;;55.60;2.20;;;;;;;;;;5054079;28;20447;-74
2023/12/21 11:17:36;;;;;;;55.13;2.10;;;;;;;;;;5054382;28;20453;-74
2023/12/21 11:20:05;;;;;;;55.67;2.00;;;;;;;;;;5053676;28;20451;-74
2023/12/21 11:22:33;;;;;;;55.07;1.93;;;;;;;;;;5053760;28;20465;-74
2023/12/21 11:25:02;;;;;;;55.40;1.90;;;;;;;;;;5054083;28;20444;-74
2023/12/21 11:27:29;;;;;;;55.67;2.27;;;;;;;;;;5054421;28;20502;-74
2023/12/21 11:29:56;;;;;;;55.47;2.53;;;;;;;;;;5053143;28;20444;-74
2023/12/21 11:32:26;;;;;;;55.67;2.10;;;;;;;;;;5054247;28;20489;-74
2023/12/21 11:34:53;;;;;;;55.77;2.20;;;;;;;;;;5053970;28;20448;-74
2023/12/21 11:37:24;;;;;;;55.30;1.90;;;;;;;;;;5053883;28;20500;-74
2023/12/21 11:39:52;;;;;;;55.43;2.10;;;;;;;;;;5052730;28;20815;-74
2023/12/21 11:42:21;;;;;;;55.23;2.00;;;;;;;;;;5052691;28;20475;-74
2023/12/21 11:44:49;;;;;;;55.60;2.40;;;;;;;;;;5052628;28;20866;-74
2023/12/21 11:47:16;;;;;;;55.70;2.10;;;;;;;;;;5048542;28;20585;-74
2023/12/21 11:49:44;;;;;;;55.70;2.10;;;;;;;;;;5048780;28;20448;-74
2023/12/21 11:52:12;;;;;;;55.80;2.20;;;;;;;;;;5052473;28;20470;-74
2023/12/21 11:54:47;;;;;;;55.80;2.10;;;;;;;;;;5052376;28;20843;-74
2023/12/21 11:57:15;;;;;;;55.00;2.10;;;;;;;;;;5052697;28;20441;-74
2023/12/21 11:59:42;;;;;;;55.60;1.80;;;;;;;;;;5052472;28;20993;-74
2023/12/21 12:02:13;;;;;;;55.77;1.90;;;;;;;;;;5052169;28;20470;-74
2023/12/21 12:04:40;;;;;;;55.80;2.00;;;;;;;;;;5052614;28;20851;-74
2023/12/21 12:07:07;;;;;;;55.67;2.27;;;;;;;;;;5052597;28;20485;-74
2023/12/21 12:09:34;;;;;;;55.80;1.90;;;;;;;;;;5052734;28;20462;-74
2023/12/21 12:12:03;;;;;;;55.13;1.90;;;;;;;;;;5052647;28;20473;-74
2023/12/21 12:14:30;;;;;;;55.40;1.80;;;;;;;;;;5052139;28;20473;-74
2023/12/21 12:16:57;;;;;;;55.70;1.90;;;;;;;;;;5052577;28;20455;-74
2023/12/21 12:19:26;;;;;;;55.57;2.00;;;;;;;;;;5052444;28;20447;-74
2023/12/21 12:21:54;;;;;;;55.73;1.90;;;;;;;;;;5051791;28;20467;-74
2023/12/21 12:24:22;;;;;;;55.40;2.07;;;;;;;;;;5051884;28;20459;-74
2023/12/21 12:26:49;;;;;;;55.50;2.20;;;;;;;;;;5051764;28;20490;-74
2023/12/21 12:29:18;;;;;;;55.67;2.10;;;;;;;;;;5051287;28;20466;-73
2023/12/21 12:31:45;;;;;;;55.90;2.00;;;;;;;;;;5051507;28;20507;-73
2023/12/21 12:34:13;;;;;;;55.87;2.10;;;;;;;;;;5051555;28;20442;-73
2023/12/21 12:36:41;;;;;;;55.37;2.00;;;;;;;;;;5051443;28;20451;-73
2023/12/21 12:39:08;;;;;;;55.50;2.00;;;;;;;;;;5051149;28;20455;-73
2023/12/21 12:41:35;;;;;;;55.27;1.90;;;;;;;;;;5050787;28;20485;-73
2023/12/21 12:44:02;;;;;;;55.50;2.07;;;;;;;;;;5051344;28;20878;-73
2023/12/21 12:46:31;;;;;;;55.70;2.20;;;;;;;;;;5050806;28;20486;-73
2023/12/21 12:48:58;;;;;;;55.57;2.27;;;;;;;;;;5051124;28;20455;-73
2023/12/21 12:51:25;;;;;;;55.70;2.10;;;;;;;;;;5050999;28;20446;-73
2023/12/21 12:53:52;;;;;;;55.03;2.00;;;;;;;;;;5050945;28;20521;-73
2023/12/21 12:56:19;;;;;;;55.80;2.20;;;;;;;;;;5051533;28;20446;-73
2023/12/21 12:58:47;;;;;;;55.60;1.87;;;;;;;;;;5051023;28;20479;-73
2023/12/21 13:01:14;;;;;;;55.33;2.10;;;;;;;;;;5050854;28;20532;-73
2023/12/21 13:03:42;;;;;;;55.17;2.00;;;;;;;;;;5045680;28;20536;-73
2023/12/21 13:06:10;;;;;;;55.53;1.70;;;;;;;;;;5050778;28;20446;-73
2023/12/21 13:08:37;;;;;;;55.13;1.90;;;;;;;;;;5046163;28;20488;-73
2023/12/21 13:11:04;;;;;;;55.00;2.10;;;;;;;;;;5042645;28;20540;-72
2023/12/21 13:13:31;;;;;;;55.70;1.87;;;;;;;;;;5031788;28;20468;-72
2023/12/21 13:15:58;;;;;;;55.40;2.00;;;;;;;;;;5036738;28;20450;-73
2023/12/21 13:18:26;;;;;;;55.47;2.20;;;;;;;;;;5051827;28;20898;-72
2023/12/21 13:20:54;;;;;;;55.47;1.90;;;;;;;;;;5050449;28;20552;-71
2023/12/21 13:23:21;;;;;;;55.27;1.90;;;;;;;;;;5030598;28;20470;-71
2023/12/21 13:25:48;;;;;;;55.57;1.80;;;;;;;;;;5031030;28;20484;-71
2023/12/21 13:28:16;;;;;;;55.63;2.00;;;;;;;;;;5034034;28;20486;-71
2023/12/21 13:30:43;;;;;;;55.73;2.20;;;;;;;;;;5034834;28;20447;-71
2023/12/21 13:33:11;;;;;;;55.37;2.00;;;;;;;;;;5033748;28;20990;-72
2023/12/21 13:35:38;;;;;;;55.90;2.30;;;;;;;;;;5034475;28;20457;-71
2023/12/21 13:38:07;;;;;;;55.77;2.10;;;;;;;;;;5034157;28;20828;-71
2023/12/21 13:40:34;;;;;;;55.37;1.90;;;;;;;;;;5034159;28;20488;-71
2023/12/21 13:43:01;;;;;;;55.50;2.13;;;;;;;;;;5049588;28;20478;-72
2023/12/21 13:45:28;;;;;;;55.57;2.23;;;;;;;;;;5049374;28;20452;-71
2023/12/21 13:47:55;;;;;;;55.80;2.27;;;;;;;;;;5034522;28;20488;-72
2023/12/21 13:50:22;;;;;;;55.80;2.37;;;;;;;;;;5034552;28;20558;-72
2023/12/21 13:52:50;;;;;;;55.50;2.20;;;;;;;;;;5034128;28;20480;-72
2023/12/21 13:55:18;;;;;;;55.50;1.97;;;;;;;;;;5033898;28;20956;-72
2023/12/21 13:57:45;;;;;;;55.13;2.00;;;;;;;;;;5034289;28;20457;-72
2023/12/21 14:00:14;;;;;;;55.87;2.33;;;;;;;;;;5033856;28;20446;-73
2023/12/21 14:02:41;;;;;;;55.27;2.00;;;;;;;;;;5033566;28;20839;-72
2023/12/21 14:05:08;;;;;;;55.70;2.00;;;;;;;;;;5033773;28;20453;-72
2023/12/21 14:07:35;;;;;;;55.80;2.30;;;;;;;;;;5033578;28;20481;-73
2023/12/21 14:10:03;;;;;;;55.90;2.10;;;;;;;;;;5033583;28;20633;-73
2023/12/21 14:12:32;;;;;;;55.77;2.30;;;;;;;;;;5033494;28;20522;-73
2023/12/21 14:14:59;;;;;;;55.40;1.90;;;;;;;;;;5033956;28;20523;-73
2023/12/21 14:17:26;;;;;;;55.67;2.17;;;;;;;;;;5033974;28;20446;-73
2023/12/21 14:19:54;;;;;;;55.50;2.13;;;;;;;;;;5033674;28;20451;-72
2023/12/21 14:22:21;;;;;;;55.63;1.90;;;;;;;;;;5033028;28;20465;-72
2023/12/21 14:24:48;;;;;;;55.37;1.97;;;;;;;;;;5048215;28;20453;-72
2023/12/21 14:27:19;;;;;;;55.70;1.97;;;;;;;;;;5034261;28;20488;-72
2023/12/21 14:29:47;;;;;;;55.57;1.90;;;;;;;;;;5033834;28;20828;-73
2023/12/21 14:32:15;;;;;;;54.93;2.10;;;;;;;;;;5033486;28;20472;-73
2023/12/21 14:34:43;;;;;;;55.80;2.03;;;;;;;;;;5033791;28;20456;-73